createdAt,value
2022-09-26T00:00:35.988Z,14.81
2022-09-26T00:05:39.012Z,14.77
2022-09-26T00:10:40.813Z,14.75
2022-09-26T00:15:42.581Z,14.78
2022-09-26T00:20:44.384Z,14.75
2022-09-26T00:25:47.745Z,14.75
2022-09-26T00:30:49.936Z,14.74
2022-09-26T00:35:53.356Z,14.73
2022-09-26T00:40:55.591Z,14.72
2022-09-26T00:46:06.447Z,14.67
2022-09-26T00:51:10.000Z,14.69
2022-09-26T00:56:18.975Z,14.69
2022-09-26T01:01:22.618Z,14.67
2022-09-26T01:06:24.379Z,14.63
2022-09-26T01:11:28.253Z,14.62
2022-09-26T01:16:31.900Z,14.61
2022-09-26T01:21:52.206Z,14.61
2022-09-26T01:27:07.841Z,14.59
2022-09-26T01:32:49.567Z,14.56
2022-09-26T01:38:24.718Z,14.54
2022-09-26T01:43:45.757Z,14.53
2022-09-26T01:48:56.155Z,14.50
2022-09-26T01:54:21.804Z,14.48
2022-09-26T01:59:34.434Z,14.48
2022-09-26T02:04:42.854Z,14.47
2022-09-26T02:09:50.955Z,14.45
2022-09-26T02:14:56.733Z,14.45
2022-09-26T02:20:01.497Z,14.41
2022-09-26T02:25:04.960Z,14.40
2022-09-26T02:30:07.983Z,14.35
2022-09-26T02:35:30.010Z,14.40
2022-09-26T02:40:42.307Z,14.37
2022-09-26T02:45:52.274Z,14.35
2022-09-26T02:51:26.834Z,14.34
2022-09-26T02:56:34.818Z,14.33
2022-09-26T03:01:54.242Z,14.30
2022-09-26T03:07:04.370Z,14.28
2022-09-26T03:12:07.862Z,14.26
2022-09-26T03:17:10.205Z,14.28
2022-09-26T03:22:14.382Z,14.26
2022-09-26T03:27:16.954Z,14.26
2022-09-26T03:32:20.304Z,14.22
2022-09-26T03:37:23.334Z,14.24
2022-09-26T03:42:25.661Z,14.24
2022-09-26T03:47:29.475Z,14.24
2022-09-26T03:52:31.694Z,14.25
2022-09-26T03:57:33.384Z,14.27
2022-09-26T04:02:49.302Z,14.25
2022-09-26T04:08:06.783Z,14.24
2022-09-26T04:13:10.553Z,14.23
2022-09-26T04:18:12.160Z,14.19
2022-09-26T04:23:14.312Z,14.17
2022-09-26T04:28:16.265Z,14.18
2022-09-26T04:33:17.834Z,14.18
2022-09-26T04:38:25.127Z,14.16
2022-09-26T04:43:26.731Z,14.17
2022-09-26T04:48:28.635Z,14.17
2022-09-26T04:53:35.962Z,14.15
2022-09-26T04:58:46.820Z,14.16
2022-09-26T05:03:49.537Z,14.14
2022-09-26T05:08:52.186Z,14.13
2022-09-26T05:14:02.722Z,14.14
2022-09-26T05:19:05.188Z,14.14
2022-09-26T05:24:29.196Z,14.15
2022-09-26T05:29:31.006Z,14.14
2022-09-26T05:34:37.238Z,14.13
2022-09-26T05:39:58.948Z,14.14
2022-09-26T05:45:03.394Z,14.15
2022-09-26T05:50:09.970Z,14.17
2022-09-26T05:55:14.012Z,14.23
2022-09-26T06:00:35.618Z,14.28
2022-09-26T06:05:38.080Z,14.32
2022-09-26T06:10:47.085Z,14.35
2022-09-26T06:15:49.588Z,14.40
2022-09-26T06:20:51.329Z,14.45
2022-09-26T06:25:53.175Z,14.48
2022-09-26T06:30:55.521Z,14.52
2022-09-26T06:36:17.084Z,14.56
2022-09-26T06:41:19.781Z,14.64
2022-09-26T06:46:21.753Z,14.73
2022-09-26T06:51:31.899Z,14.82
2022-09-26T06:56:33.558Z,14.90
2022-09-26T07:01:35.334Z,14.97
2022-09-26T07:06:58.370Z,15.02
2022-09-26T07:12:17.174Z,15.08
2022-09-26T07:17:19.118Z,15.34
2022-09-26T07:22:44.766Z,15.48
2022-09-26T07:27:51.975Z,15.42
2022-09-26T07:33:03.165Z,15.42
2022-09-26T07:38:18.847Z,15.39
2022-09-26T07:43:30.783Z,15.42
2022-09-26T07:49:02.518Z,15.34
2022-09-26T07:54:35.207Z,15.38
2022-09-26T07:59:55.339Z,15.53
2022-09-26T08:05:26.323Z,15.57
2022-09-26T08:10:28.121Z,15.88
2022-09-26T08:15:47.978Z,16.16
2022-09-26T08:20:57.792Z,16.32
2022-09-26T08:26:05.089Z,16.24
2022-09-26T08:31:18.163Z,16.45
2022-09-26T08:36:21.538Z,16.53
2022-09-26T08:41:54.700Z,16.73
2022-09-26T08:47:43.870Z,16.90
2022-09-26T08:53:04.233Z,16.81
2022-09-26T08:58:29.052Z,16.85
2022-09-26T09:03:58.223Z,16.97
2022-09-26T09:09:00.024Z,17.02
2022-09-26T09:14:40.642Z,16.98
2022-09-26T09:20:26.271Z,17.08
2022-09-26T09:25:50.665Z,17.15
2022-09-26T09:31:01.131Z,17.11
2022-09-26T09:36:08.470Z,17.05
2022-09-26T09:41:17.352Z,16.99
2022-09-26T09:46:34.742Z,16.97
2022-09-26T09:52:00.961Z,16.95
2022-09-26T09:57:37.584Z,17.04
2022-09-26T10:03:03.607Z,17.17
2022-09-26T10:08:18.394Z,17.26
2022-09-26T10:13:49.656Z,17.55
2022-09-26T10:19:04.187Z,17.80
2022-09-26T10:24:38.745Z,17.83
2022-09-26T10:29:45.338Z,17.92
2022-09-26T10:35:21.257Z,17.88
2022-09-26T10:40:55.343Z,17.90
2022-09-26T10:46:16.536Z,17.90
2022-09-26T10:51:45.475Z,18.16
2022-09-26T10:56:54.272Z,18.23
2022-09-26T11:01:58.961Z,18.23
2022-09-26T11:07:02.107Z,18.27
2022-09-26T11:12:25.430Z,18.41
2022-09-26T11:17:50.525Z,18.48
2022-09-26T11:23:16.246Z,18.55
2022-09-26T11:28:26.874Z,18.65
2022-09-26T11:33:49.616Z,18.55
2022-09-26T11:39:18.532Z,18.65
2022-09-26T11:44:32.150Z,18.95
2022-09-26T11:50:52.333Z,19.20
2022-09-26T11:56:23.129Z,19.23
2022-09-26T12:02:01.960Z,19.28
2022-09-26T12:07:16.344Z,19.41
2022-09-26T12:12:47.248Z,19.41
2022-09-26T12:17:54.007Z,19.38
2022-09-26T12:23:21.330Z,19.24
2022-09-26T12:28:50.552Z,19.31
2022-09-26T12:33:58.259Z,19.26
2022-09-26T12:39:36.429Z,19.15
2022-09-26T12:45:13.542Z,19.14
2022-09-26T12:50:29.626Z,19.12
2022-09-26T12:55:34.156Z,19.03
2022-09-26T13:00:45.709Z,18.99
2022-09-26T13:06:25.582Z,18.93
2022-09-26T13:11:48.179Z,18.95
2022-09-26T13:16:57.547Z,18.95
2022-09-26T13:22:37.782Z,18.88
2022-09-26T13:27:44.151Z,18.80
2022-09-26T13:32:47.557Z,18.72
2022-09-26T13:38:00.666Z,18.67
2022-09-26T13:43:25.972Z,18.70
2022-09-26T13:48:40.045Z,18.70
2022-09-26T13:54:16.692Z,18.71
2022-09-26T13:59:18.180Z,18.85
2022-09-26T14:04:33.405Z,18.96
2022-09-26T14:09:42.154Z,18.97
2022-09-26T14:14:47.373Z,18.96
2022-09-26T14:19:57.181Z,18.91
2022-09-26T14:24:59.841Z,19.03
2022-09-26T14:30:22.610Z,19.09
2022-09-26T14:35:31.549Z,19.14
2022-09-26T14:40:51.916Z,19.17
2022-09-26T14:46:03.062Z,19.25
2022-09-26T14:51:11.212Z,19.29
2022-09-26T14:56:25.584Z,19.30
2022-09-26T15:01:36.470Z,19.27
2022-09-26T15:07:02.468Z,19.21
2022-09-26T15:12:13.062Z,19.20
2022-09-26T15:17:25.712Z,19.15
2022-09-26T15:22:30.890Z,19.12
2022-09-26T15:27:33.281Z,19.07
2022-09-26T15:32:35.005Z,19.04
2022-09-26T15:37:36.938Z,18.96
2022-09-26T15:42:57.549Z,18.80
2022-09-26T15:48:05.296Z,18.68
2022-09-26T15:53:17.605Z,18.58
2022-09-26T15:58:27.449Z,18.43
2022-09-26T16:03:40.087Z,18.37
2022-09-26T16:08:42.483Z,18.18
2022-09-26T16:13:49.560Z,18.13
2022-09-26T16:19:00.990Z,18.03
2022-09-26T16:24:34.257Z,17.88
2022-09-26T16:29:36.344Z,17.77
2022-09-26T16:34:38.071Z,17.64
2022-09-26T16:39:39.795Z,17.53
2022-09-26T16:44:51.603Z,17.41
2022-09-26T16:49:53.312Z,17.20
2022-09-26T16:54:59.718Z,17.11
2022-09-26T17:00:24.273Z,17.00
2022-09-26T17:05:26.251Z,16.89
2022-09-26T17:10:27.972Z,16.77
2022-09-26T17:15:30.891Z,16.68
2022-09-26T17:20:32.604Z,16.40
2022-09-26T17:25:35.096Z,16.37
2022-09-26T17:30:37.183Z,16.40
2022-09-26T17:35:40.923Z,16.40
2022-09-26T17:40:45.623Z,16.34
2022-09-26T17:45:50.805Z,16.31
2022-09-26T17:50:56.537Z,16.26
2022-09-26T17:55:58.544Z,16.09
2022-09-26T18:01:03.581Z,16.09
2022-09-26T18:06:05.941Z,16.05
2022-09-26T18:11:15.214Z,15.95
2022-09-26T18:16:17.278Z,15.84
2022-09-26T18:21:19.548Z,15.79
2022-09-26T18:26:27.893Z,15.74
2022-09-26T18:31:31.621Z,15.71
2022-09-26T18:36:33.704Z,15.68
2022-09-26T18:41:35.499Z,15.66
2022-09-26T18:46:37.934Z,15.63
2022-09-26T18:51:39.814Z,15.57
2022-09-26T18:57:00.557Z,15.55
2022-09-26T19:02:04.221Z,15.48
2022-09-26T19:07:06.914Z,15.40
2022-09-26T19:12:14.349Z,15.35
2022-09-26T19:17:16.008Z,15.31
2022-09-26T19:22:17.785Z,15.26
2022-09-26T19:27:23.581Z,15.30
2022-09-26T19:32:38.641Z,15.27
2022-09-26T19:37:40.584Z,15.27
2022-09-26T19:42:42.505Z,15.22
2022-09-26T19:47:53.063Z,15.19
2022-09-26T19:52:57.491Z,15.21
2022-09-26T19:58:11.832Z,15.18
2022-09-26T20:03:18.910Z,15.15
2022-09-26T20:08:26.431Z,15.09
2022-09-26T20:13:48.356Z,15.09
2022-09-26T20:18:51.615Z,15.05
2022-09-26T20:23:54.309Z,15.02
2022-09-26T20:28:56.801Z,14.93
2022-09-26T20:34:00.129Z,14.89
2022-09-26T20:39:06.489Z,14.88
2022-09-26T20:44:17.892Z,14.77
2022-09-26T20:49:23.609Z,14.69
2022-09-26T20:54:31.844Z,14.64
2022-09-26T20:59:36.009Z,14.57
2022-09-26T21:04:37.794Z,14.51
2022-09-26T21:09:39.770Z,14.51
2022-09-26T21:14:41.473Z,14.44
2022-09-26T21:19:43.473Z,14.47
2022-09-26T21:25:05.585Z,14.47
2022-09-26T21:30:12.902Z,14.48
2022-09-26T21:35:17.626Z,14.49
2022-09-26T21:40:26.332Z,14.51
2022-09-26T21:45:28.222Z,14.46
2022-09-26T21:50:31.135Z,14.48
2022-09-26T21:55:38.757Z,14.51
2022-09-26T22:00:40.924Z,14.51
2022-09-26T22:05:42.905Z,14.54
2022-09-26T22:10:44.599Z,14.54
2022-09-26T22:15:46.260Z,14.54
2022-09-26T22:20:55.088Z,14.56
2022-09-26T22:25:56.912Z,14.56
2022-09-26T22:31:03.076Z,14.56
2022-09-26T22:36:05.252Z,14.55
2022-09-26T22:41:07.826Z,14.56
2022-09-26T22:46:12.429Z,14.58
2022-09-26T22:51:15.692Z,14.58
2022-09-26T22:56:18.078Z,14.55
2022-09-26T23:01:23.658Z,14.56
2022-09-26T23:06:25.943Z,14.52
2022-09-26T23:11:28.072Z,14.44
2022-09-26T23:16:30.492Z,14.28
2022-09-26T23:21:32.169Z,14.31
2022-09-26T23:26:33.858Z,14.28
2022-09-26T23:31:35.720Z,14.26
2022-09-26T23:36:37.674Z,14.20
2022-09-26T23:41:39.463Z,13.99
2022-09-26T23:46:41.271Z,13.59
2022-09-26T23:51:43.357Z,13.27
2022-09-26T23:56:45.543Z,13.18
